Terminal Aerodrome Forecast
Issued by NWS

Home | Current Version | Previous Version | Graphics & Text | Print | Product List | Glossary On
Versions: 1 2 3 4 5 6 7 8 9 10 11 12 13 14 15 16 17 18 19 20 21
806
FTUS43 KMPX 180221 AAA
TAFRNH
TAF AMD
KRNH 180221Z 1802/1824 35004KT 2SM BR OVC003
      TEMPO 1802/1804 P6SM NSW SCT005 OVC015
     FM180400 36006KT 5SM BR BKN010
     FM180700 35008KT P6SM BKN008
     FM181000 34009KT P6SM BKN015
     FM181500 33011KT P6SM BKN150
     FM182100 32015G23KT P6SM BKN030
     FM182200 32015G23KT P6SM SCT015=

USA.gov is the U.S. government's official web portal to all federal, state and local government web resources and services.